sensor_id;sensor_type;location;lat;lon;timestamp;pressure;altitude;pressure_sealevel;temperature;humidity
24486;BME280;13449;49.374;8.584;2024-03-07T00:01:58;101118.97;;;5.19;100.00
24486;BME280;13449;49.374;8.584;2024-03-07T00:04:24;101120.09;;;5.13;100.00
24486;BME280;13449;49.374;8.584;2024-03-07T00:06:51;101115.84;;;5.10;100.00
24486;BME280;13449;49.374;8.584;2024-03-07T00:09:19;101121.06;;;5.10;100.00
24486;BME280;13449;49.374;8.584;2024-03-07T00:11:53;101120.53;;;5.02;100.00
24486;BME280;13449;49.374;8.584;2024-03-07T00:14:20;101118.22;;;4.96;100.00
24486;BME280;13449;49.374;8.584;2024-03-07T00:16:47;101125.41;;;4.91;100.00
24486;BME280;13449;49.374;8.584;2024-03-07T00:19:13;101125.63;;;4.85;100.00
24486;BME280;13449;49.374;8.584;2024-03-07T00:21:41;101122.53;;;4.77;100.00
24486;BME280;13449;49.374;8.584;2024-03-07T00:24:07;101123.22;;;4.80;100.00
24486;BME280;13449;49.374;8.584;2024-03-07T00:26:34;101128.03;;;4.69;100.00
24486;BME280;13449;49.374;8.584;2024-03-07T00:29:01;101133.34;;;4.68;100.00
24486;BME280;13449;49.374;8.584;2024-03-07T00:31:28;101123.94;;;4.64;100.00
24486;BME280;13449;49.374;8.584;2024-03-07T00:33:58;101129.16;;;4.64;100.00
24486;BME280;13449;49.374;8.584;2024-03-07T00:36:44;101129.47;;;4.56;100.00
24486;BME280;13449;49.374;8.584;2024-03-07T00:39:11;101133.50;;;4.43;100.00
24486;BME280;13449;49.374;8.584;2024-03-07T00:41:41;101129.44;;;4.36;100.00
24486;BME280;13449;49.374;8.584;2024-03-07T00:44:08;101121.78;;;4.31;100.00
24486;BME280;13449;49.374;8.584;2024-03-07T00:46:36;101121.16;;;4.26;100.00
24486;BME280;13449;49.374;8.584;2024-03-07T00:49:03;101122.22;;;4.20;100.00
24486;BME280;13449;49.374;8.584;2024-03-07T00:51:30;101128.53;;;4.15;100.00
24486;BME280;13449;49.374;8.584;2024-03-07T00:53:57;101136.41;;;4.13;100.00
24486;BME280;13449;49.374;8.584;2024-03-07T00:56:27;101139.09;;;4.12;100.00
24486;BME280;13449;49.374;8.584;2024-03-07T00:58:55;101134.72;;;4.12;100.00
24486;BME280;13449;49.374;8.584;2024-03-07T01:01:25;101141.84;;;4.07;100.00
24486;BME280;13449;49.374;8.584;2024-03-07T01:03:52;101135.78;;;4.07;100.00
24486;BME280;13449;49.374;8.584;2024-03-07T01:06:19;101134.88;;;4.08;100.00
24486;BME280;13449;49.374;8.584;2024-03-07T01:08:46;101146.09;;;4.10;100.00
24486;BME280;13449;49.374;8.584;2024-03-07T01:11:13;101135.78;;;4.07;100.00
24486;BME280;13449;49.374;8.584;2024-03-07T01:13:42;101133.97;;;4.09;100.00
24486;BME280;13449;49.374;8.584;2024-03-07T01:16:09;101136.34;;;4.15;100.00
24486;BME280;13449;49.374;8.584;2024-03-07T01:18:37;101143.41;;;4.13;100.00
24486;BME280;13449;49.374;8.584;2024-03-07T01:21:04;101153.81;;;4.13;100.00
24486;BME280;13449;49.374;8.584;2024-03-07T01:23:34;101151.22;;;4.13;100.00
24486;BME280;13449;49.374;8.584;2024-03-07T01:26:03;101150.31;;;4.14;100.00
24486;BME280;13449;49.374;8.584;2024-03-07T01:28:29;101149.94;;;4.23;100.00
24486;BME280;13449;49.374;8.584;2024-03-07T01:30:59;101150.56;;;4.30;100.00
24486;BME280;13449;49.374;8.584;2024-03-07T01:33:26;101145.41;;;4.28;100.00
24486;BME280;13449;49.374;8.584;2024-03-07T01:35:53;101152.31;;;4.29;100.00
24486;BME280;13449;49.374;8.584;2024-03-07T01:38:20;101152.19;;;4.32;100.00
24486;BME280;13449;49.374;8.584;2024-03-07T01:40:49;101148.66;;;4.33;100.00
24486;BME280;13449;49.374;8.584;2024-03-07T01:43:16;101142.47;;;4.36;100.00
24486;BME280;13449;49.374;8.584;2024-03-07T01:45:42;101148.53;;;4.36;100.00
24486;BME280;13449;49.374;8.584;2024-03-07T01:48:12;101149.31;;;4.38;100.00
24486;BME280;13449;49.374;8.584;2024-03-07T01:50:43;101147.19;;;4.48;100.00
24486;BME280;13449;49.374;8.584;2024-03-07T01:53:09;101151.44;;;4.50;100.00
24486;BME280;13449;49.374;8.584;2024-03-07T01:55:38;101152.56;;;4.45;100.00
24486;BME280;13449;49.374;8.584;2024-03-07T01:58:05;101150.91;;;4.42;100.00
24486;BME280;13449;49.374;8.584;2024-03-07T02:00:36;101161.28;;;4.44;100.00
24486;BME280;13449;49.374;8.584;2024-03-07T02:03:03;101159.41;;;4.47;100.00
24486;BME280;13449;49.374;8.584;2024-03-07T02:05:30;101155.31;;;4.40;100.00
24486;BME280;13449;49.374;8.584;2024-03-07T02:07:57;101151.78;;;4.41;100.00
24486;BME280;13449;49.374;8.584;2024-03-07T02:10:24;101162.13;;;4.44;100.00
24486;BME280;13449;49.374;8.584;2024-03-07T02:12:51;101165.75;;;4.40;100.00
24486;BME280;13449;49.374;8.584;2024-03-07T02:15:20;101160.78;;;4.34;100.00
24486;BME280;13449;49.374;8.584;2024-03-07T02:17:46;101156.50;;;4.33;100.00
24486;BME280;13449;49.374;8.584;2024-03-07T02:20:13;101155.84;;;4.28;100.00
24486;BME280;13449;49.374;8.584;2024-03-07T02:22:40;101155.19;;;4.21;100.00
24486;BME280;13449;49.374;8.584;2024-03-07T02:25:10;101155.69;;;4.31;100.00
24486;BME280;13449;49.374;8.584;2024-03-07T02:27:37;101156.63;;;4.30;100.00
24486;BME280;13449;49.374;8.584;2024-03-07T02:30:04;101158.25;;;4.11;100.00
24486;BME280;13449;49.374;8.584;2024-03-07T02:32:32;101158.72;;;4.20;100.00
24486;BME280;13449;49.374;8.584;2024-03-07T02:34:59;101157.16;;;4.16;100.00
24486;BME280;13449;49.374;8.584;2024-03-07T02:37:25;101158.34;;;4.08;100.00
24486;BME280;13449;49.374;8.584;2024-03-07T02:39:52;101157.16;;;3.95;100.00
24486;BME280;13449;49.374;8.584;2024-03-07T02:42:19;101159.75;;;4.16;100.00
24486;BME280;13449;49.374;8.584;2024-03-07T02:44:46;101154.28;;;4.01;100.00
24486;BME280;13449;49.374;8.584;2024-03-07T02:47:12;101152.19;;;3.87;100.00
24486;BME280;13449;49.374;8.584;2024-03-07T02:49:39;101137.34;;;3.89;100.00
24486;BME280;13449;49.374;8.584;2024-03-07T02:52:05;101138.56;;;3.80;100.00
24486;BME280;13449;49.374;8.584;2024-03-07T02:54:34;101123.53;;;3.87;100.00
24486;BME280;13449;49.374;8.584;2024-03-07T02:57:03;101100.28;;;3.82;100.00
24486;BME280;13449;49.374;8.584;2024-03-07T02:59:32;101093.56;;;3.75;100.00
24486;BME280;13449;49.374;8.584;2024-03-07T03:01:59;101082.75;;;3.63;100.00
24486;BME280;13449;49.374;8.584;2024-03-07T03:04:25;101069.13;;;3.56;100.00
24486;BME280;13449;49.374;8.584;2024-03-07T03:06:52;101060.09;;;3.43;100.00
24486;BME280;13449;49.374;8.584;2024-03-07T03:09:19;101052.56;;;3.35;100.00
24486;BME280;13449;49.374;8.584;2024-03-07T03:11:45;101052.56;;;3.35;100.00
24486;BME280;13449;49.374;8.584;2024-03-07T03:14:12;101050.25;;;3.27;100.00
24486;BME280;13449;49.374;8.584;2024-03-07T03:16:43;101052.06;;;3.25;100.00
24486;BME280;13449;49.374;8.584;2024-03-07T03:19:14;101045.47;;;3.15;100.00
24486;BME280;13449;49.374;8.584;2024-03-07T03:21:43;101047.53;;;3.07;100.00
24486;BME280;13449;49.374;8.584;2024-03-07T03:24:10;101039.03;;;3.02;100.00
24486;BME280;13449;49.374;8.584;2024-03-07T03:26:37;101047.97;;;2.95;100.00
24486;BME280;13449;49.374;8.584;2024-03-07T03:29:06;101044.56;;;2.93;100.00
24486;BME280;13449;49.374;8.584;2024-03-07T03:31:33;101041.41;;;2.85;100.00
24486;BME280;13449;49.374;8.584;2024-03-07T03:34:01;101037.13;;;2.82;100.00
24486;BME280;13449;49.374;8.584;2024-03-07T03:36:28;101031.19;;;2.79;100.00
24486;BME280;13449;49.374;8.584;2024-03-07T03:38:56;101038.22;;;2.77;100.00
24486;BME280;13449;49.374;8.584;2024-03-07T03:41:23;101039.91;;;2.78;100.00
24486;BME280;13449;49.374;8.584;2024-03-07T03:43:50;101036.34;;;2.80;100.00
24486;BME280;13449;49.374;8.584;2024-03-07T03:46:16;101039.00;;;2.79;100.00
24486;BME280;13449;49.374;8.584;2024-03-07T03:48:43;101033.25;;;2.70;100.00
24486;BME280;13449;49.374;8.584;2024-03-07T03:51:10;101033.25;;;2.70;100.00
24486;BME280;13449;49.374;8.584;2024-03-07T03:53:41;101033.31;;;2.67;100.00
24486;BME280;13449;49.374;8.584;2024-03-07T03:56:10;101038.75;;;2.61;100.00
24486;BME280;13449;49.374;8.584;2024-03-07T03:58:41;101035.41;;;2.58;100.00
24486;BME280;13449;49.374;8.584;2024-03-07T04:01:11;101037.47;;;2.48;100.00
24486;BME280;13449;49.374;8.584;2024-03-07T04:03:41;101035.75;;;2.47;100.00
24486;BME280;13449;49.374;8.584;2024-03-07T04:06:08;101041.03;;;2.46;100.00
24486;BME280;13449;49.374;8.584;2024-03-07T04:08:35;101034.06;;;2.46;100.00
24486;BME280;13449;49.374;8.584;2024-03-07T04:11:06;101028.88;;;2.46;100.00
24486;BME280;13449;49.374;8.584;2024-03-07T04:13:36;101028.50;;;2.57;100.00
24486;BME280;13449;49.374;8.584;2024-03-07T04:16:03;101027.66;;;2.56;100.00
24486;BME280;13449;49.374;8.584;2024-03-07T04:18:31;101036.19;;;2.60;100.00
24486;BME280;13449;49.374;8.584;2024-03-07T04:20:59;101031.34;;;2.49;100.00
24486;BME280;13449;49.374;8.584;2024-03-07T04:23:28;101027.06;;;2.48;100.00
24486;BME280;13449;49.374;8.584;2024-03-07T04:25:55;101026.03;;;2.52;100.00
24486;BME280;13449;49.374;8.584;2024-03-07T04:28:23;101023.78;;;2.43;100.00
24486;BME280;13449;49.374;8.584;2024-03-07T04:30:49;101018.34;;;2.49;100.00
24486;BME280;13449;49.374;8.584;2024-03-07T04:33:16;101023.13;;;2.61;100.00
24486;BME280;13449;49.374;8.584;2024-03-07T04:35:43;101015.75;;;2.49;100.00
24486;BME280;13449;49.374;8.584;2024-03-07T04:38:09;101019.25;;;2.48;100.00
24486;BME280;13449;49.374;8.584;2024-03-07T04:40:43;101011.78;;;2.39;100.00
24486;BME280;13449;49.374;8.584;2024-03-07T04:43:10;101014.47;;;2.36;100.00
24486;BME280;13449;49.374;8.584;2024-03-07T04:45:37;101014.53;;;2.34;100.00
24486;BME280;13449;49.374;8.584;2024-03-07T04:48:04;101013.16;;;2.24;100.00
24486;BME280;13449;49.374;8.584;2024-03-07T04:50:31;101020.78;;;2.29;100.00
24486;BME280;13449;49.374;8.584;2024-03-07T04:52:58;101012.31;;;2.24;100.00
24486;BME280;13449;49.374;8.584;2024-03-07T04:55:28;101014.28;;;2.16;100.00
24486;BME280;13449;49.374;8.584;2024-03-07T04:57:55;101022.59;;;2.27;100.00
24486;BME280;13449;49.374;8.584;2024-03-07T05:00:21;101026.00;;;2.29;100.00
24486;BME280;13449;49.374;8.584;2024-03-07T05:02:49;101021.75;;;2.26;100.00
24486;BME280;13449;49.374;8.584;2024-03-07T05:05:17;101019.44;;;2.44;100.00
24486;BME280;13449;49.374;8.584;2024-03-07T05:07:52;101020.56;;;2.35;100.00
24486;BME280;13449;49.374;8.584;2024-03-07T05:10:19;101018.47;;;2.46;100.00
24486;BME280;13449;49.374;8.584;2024-03-07T05:12:46;101019.63;;;2.62;100.00
24486;BME280;13449;49.374;8.584;2024-03-07T05:15:13;101022.72;;;2.49;100.00
24486;BME280;13449;49.374;8.584;2024-03-07T05:17:42;101017.72;;;2.43;100.00
24486;BME280;13449;49.374;8.584;2024-03-07T05:20:10;101022.28;;;2.36;100.00
24486;BME280;13449;49.374;8.584;2024-03-07T05:22:39;101013.78;;;2.31;100.00
24486;BME280;13449;49.374;8.584;2024-03-07T05:25:18;101012.59;;;2.41;100.00
24486;BME280;13449;49.374;8.584;2024-03-07T05:27:45;101011.41;;;2.25;100.00
24486;BME280;13449;49.374;8.584;2024-03-07T05:30:12;101008.81;;;2.25;100.00
24486;BME280;13449;49.374;8.584;2024-03-07T05:32:40;101014.56;;;2.33;100.00
24486;BME280;13449;49.374;8.584;2024-03-07T05:35:07;101016.38;;;2.31;100.00
24486;BME280;13449;49.374;8.584;2024-03-07T05:37:34;101021.59;;;2.31;100.00
24486;BME280;13449;49.374;8.584;2024-03-07T05:40:00;101014.91;;;2.24;100.00
24486;BME280;13449;49.374;8.584;2024-03-07T05:42:29;101017.78;;;2.15;100.00
24486;BME280;13449;49.374;8.584;2024-03-07T05:44:56;101023.22;;;2.08;100.00
24486;BME280;13449;49.374;8.584;2024-03-07T05:47:23;101023.38;;;2.02;100.00
24486;BME280;13449;49.374;8.584;2024-03-07T05:49:49;101023.69;;;1.93;100.00
24486;BME280;13449;49.374;8.584;2024-03-07T05:52:19;101021.47;;;1.81;100.00
24486;BME280;13449;49.374;8.584;2024-03-07T05:54:45;101022.50;;;1.77;100.00
24486;BME280;13449;49.374;8.584;2024-03-07T05:57:14;101026.78;;;1.78;100.00
24486;BME280;13449;49.374;8.584;2024-03-07T05:59:43;101030.13;;;1.82;100.00
24486;BME280;13449;49.374;8.584;2024-03-07T06:02:13;101025.31;;;1.69;100.00
24486;BME280;13449;49.374;8.584;2024-03-07T06:04:43;101032.41;;;1.64;100.00
24486;BME280;13449;49.374;8.584;2024-03-07T06:07:10;101026.53;;;1.58;100.00
24486;BME280;13449;49.374;8.584;2024-03-07T06:09:37;101025.78;;;1.54;100.00
24486;BME280;13449;49.374;8.584;2024-03-07T06:12:07;101025.03;;;1.50;100.00
24486;BME280;13449;49.374;8.584;2024-03-07T06:14:51;101036.41;;;1.46;100.00
24486;BME280;13449;49.374;8.584;2024-03-07T06:17:20;101025.22;;;1.44;100.00
24486;BME280;13449;49.374;8.584;2024-03-07T06:19:49;101030.59;;;1.38;100.00
24486;BME280;13449;49.374;8.584;2024-03-07T06:22:16;101028.88;;;1.37;100.00
24486;BME280;13449;49.374;8.584;2024-03-07T06:24:42;101031.38;;;1.40;100.00
24486;BME280;13449;49.374;8.584;2024-03-07T06:27:09;101033.97;;;1.40;100.00
24486;BME280;13449;49.374;8.584;2024-03-07T06:29:42;101025.94;;;1.49;100.00
24486;BME280;13449;49.374;8.584;2024-03-07T06:32:09;101031.81;;;1.55;100.00
24486;BME280;13449;49.374;8.584;2024-03-07T06:34:36;101027.84;;;1.71;100.00
24486;BME280;13449;49.374;8.584;2024-03-07T06:37:04;101030.59;;;1.94;100.00
24486;BME280;13449;49.374;8.584;2024-03-07T06:39:33;101022.69;;;1.97;100.00
24486;BME280;13449;49.374;8.584;2024-03-07T06:42:01;101024.59;;;2.19;100.00
24486;BME280;13449;49.374;8.584;2024-03-07T06:44:30;101026.00;;;2.29;100.00
24486;BME280;13449;49.374;8.584;2024-03-07T06:46:59;101027.28;;;2.42;100.00
24486;BME280;13449;49.374;8.584;2024-03-07T06:49:26;101027.06;;;2.48;100.00
24486;BME280;13449;49.374;8.584;2024-03-07T06:51:54;101027.13;;;2.47;100.00
24486;BME280;13449;49.374;8.584;2024-03-07T06:54:22;101027.44;;;2.62;100.00
24486;BME280;13449;49.374;8.584;2024-03-07T06:56:48;101029.84;;;2.68;100.00
24486;BME280;13449;49.374;8.584;2024-03-07T06:59:15;101020.63;;;2.83;100.00
24486;BME280;13449;49.374;8.584;2024-03-07T07:01:42;101021.03;;;2.96;100.00
24486;BME280;13449;49.374;8.584;2024-03-07T07:04:09;101019.19;;;3.23;100.00
24486;BME280;13449;49.374;8.584;2024-03-07T07:06:39;101018.28;;;3.24;100.00
24486;BME280;13449;49.374;8.584;2024-03-07T07:09:08;101011.75;;;3.36;100.00
24486;BME280;13449;49.374;8.584;2024-03-07T07:11:35;101017.22;;;3.51;100.00
24486;BME280;13449;49.374;8.584;2024-03-07T07:14:02;101013.19;;;3.66;100.00
24486;BME280;13449;49.374;8.584;2024-03-07T07:16:29;101017.09;;;3.76;100.00
24486;BME280;13449;49.374;8.584;2024-03-07T07:18:57;101007.88;;;3.89;100.00
24486;BME280;13449;49.374;8.584;2024-03-07T07:21:24;101001.59;;;3.95;100.00
24486;BME280;13449;49.374;8.584;2024-03-07T07:23:50;101003.63;;;4.09;100.00
24486;BME280;13449;49.374;8.584;2024-03-07T07:26:19;100999.50;;;4.03;100.00
24486;BME280;13449;49.374;8.584;2024-03-07T07:28:46;100991.25;;;4.14;100.00
24486;BME280;13449;49.374;8.584;2024-03-07T07:31:13;100998.16;;;4.35;100.00
24486;BME280;13449;49.374;8.584;2024-03-07T07:33:39;100999.88;;;4.36;100.00
24486;BME280;13449;49.374;8.584;2024-03-07T07:36:06;100999.22;;;4.51;100.00
24486;BME280;13449;49.374;8.584;2024-03-07T07:38:35;100995.47;;;4.57;100.00
24486;BME280;13449;49.374;8.584;2024-03-07T07:41:05;100990.41;;;4.74;100.00
24486;BME280;13449;49.374;8.584;2024-03-07T07:43:34;100988.63;;;4.75;100.00
24486;BME280;13449;49.374;8.584;2024-03-07T07:46:09;100989.66;;;4.91;100.00
24486;BME280;13449;49.374;8.584;2024-03-07T07:48:35;100983.09;;;5.01;100.00
24486;BME280;13449;49.374;8.584;2024-03-07T07:51:02;100979.91;;;4.95;100.00
24486;BME280;13449;49.374;8.584;2024-03-07T07:53:32;100981.47;;;4.99;100.00
24486;BME280;13449;49.374;8.584;2024-03-07T07:56:01;100984.16;;;4.97;100.00
24486;BME280;13449;49.374;8.584;2024-03-07T07:58:31;100986.22;;;5.09;100.00
24486;BME280;13449;49.374;8.584;2024-03-07T08:00:58;100980.13;;;5.09;100.00
24486;BME280;13449;49.374;8.584;2024-03-07T08:03:27;100976.13;;;5.21;100.00
24486;BME280;13449;49.374;8.584;2024-03-07T08:05:56;100969.69;;;5.28;100.00
24486;BME280;13449;49.374;8.584;2024-03-07T08:08:23;100976.38;;;5.33;100.00
24486;BME280;13449;49.374;8.584;2024-03-07T08:10:50;100972.00;;;5.34;100.00
24486;BME280;13449;49.374;8.584;2024-03-07T08:13:17;100969.44;;;5.51;100.00
24486;BME280;13449;49.374;8.584;2024-03-07T08:15:43;100968.72;;;5.66;100.00
24486;BME280;13449;49.374;8.584;2024-03-07T08:18:10;100973.94;;;5.66;100.00
24486;BME280;13449;49.374;8.584;2024-03-07T08:20:41;100966.81;;;5.51;100.00
24486;BME280;13449;49.374;8.584;2024-03-07T08:23:09;100961.94;;;5.62;100.00
24486;BME280;13449;49.374;8.584;2024-03-07T08:25:39;100964.03;;;5.73;100.00
24486;BME280;13449;49.374;8.584;2024-03-07T08:28:08;100965.41;;;5.63;100.00
24486;BME280;13449;49.374;8.584;2024-03-07T08:30:34;100960.94;;;5.65;100.00
24486;BME280;13449;49.374;8.584;2024-03-07T08:33:01;100958.81;;;5.73;100.00
24486;BME280;13449;49.374;8.584;2024-03-07T08:35:35;100964.75;;;5.77;100.00
24486;BME280;13449;49.374;8.584;2024-03-07T08:38:02;100965.44;;;5.80;100.00
24486;BME280;13449;49.374;8.584;2024-03-07T08:40:32;100955.97;;;5.78;100.00
24486;BME280;13449;49.374;8.584;2024-03-07T08:43:00;100965.72;;;5.93;100.00
24486;BME280;13449;49.374;8.584;2024-03-07T08:45:28;100964.09;;;6.08;100.00
24486;BME280;13449;49.374;8.584;2024-03-07T08:48:16;100957.84;;;6.27;100.00
24486;BME280;13449;49.374;8.584;2024-03-07T08:50:43;100966.63;;;6.26;100.00
24486;BME280;13449;49.374;8.584;2024-03-07T08:53:10;100953.88;;;6.03;100.00
24486;BME280;13449;49.374;8.584;2024-03-07T08:55:36;100946.91;;;5.85;100.00
24486;BME280;13449;49.374;8.584;2024-03-07T08:58:03;100956.25;;;6.08;100.00
24486;BME280;13449;49.374;8.584;2024-03-07T09:00:39;100952.47;;;6.13;100.00
24486;BME280;13449;49.374;8.584;2024-03-07T09:03:06;100948.16;;;6.29;100.00
24486;BME280;13449;49.374;8.584;2024-03-07T09:05:41;100941.78;;;6.35;100.00
24486;BME280;13449;49.374;8.584;2024-03-07T09:08:08;100953.19;;;6.34;100.00
24486;BME280;13449;49.374;8.584;2024-03-07T09:10:35;100943.84;;;6.46;100.00
24486;BME280;13449;49.374;8.584;2024-03-07T09:13:03;100940.63;;;6.41;100.00
24486;BME280;13449;49.374;8.584;2024-03-07T09:15:29;100934.19;;;6.64;100.00
24486;BME280;13449;49.374;8.584;2024-03-07T09:17:56;100933.31;;;6.80;100.00
24486;BME280;13449;49.374;8.584;2024-03-07T09:20:25;100930.06;;;6.75;100.00
24486;BME280;13449;49.374;8.584;2024-03-07T09:22:52;100919.28;;;6.81;100.00
24486;BME280;13449;49.374;8.584;2024-03-07T09:25:22;100920.72;;;7.03;100.00
24486;BME280;13449;49.374;8.584;2024-03-07T09:27:50;100919.78;;;7.04;100.00
24486;BME280;13449;49.374;8.584;2024-03-07T09:30:16;100915.56;;;7.01;100.00
24486;BME280;13449;49.374;8.584;2024-03-07T09:32:49;100911.84;;;6.89;100.00
24486;BME280;13449;49.374;8.584;2024-03-07T09:35:16;100906.69;;;7.04;100.00
24486;BME280;13449;49.374;8.584;2024-03-07T09:37:43;100906.28;;;6.96;100.00
24486;BME280;13449;49.374;8.584;2024-03-07T09:40:11;100909.41;;;7.18;100.00
24486;BME280;13449;49.374;8.584;2024-03-07T09:42:43;100908.47;;;7.19;100.00
24486;BME280;13449;49.374;8.584;2024-03-07T09:45:17;100906.03;;;7.16;100.00
24486;BME280;13449;49.374;8.584;2024-03-07T09:47:50;100899.00;;;7.32;100.00
24486;BME280;13449;49.374;8.584;2024-03-07T09:50:21;100908.81;;;7.44;100.00
24486;BME280;13449;49.374;8.584;2024-03-07T09:52:55;100909.94;;;7.55;100.00
24486;BME280;13449;49.374;8.584;2024-03-07T09:55:22;100909.13;;;7.54;100.00
24486;BME280;13449;49.374;8.584;2024-03-07T09:57:53;100909.56;;;7.46;100.00
24486;BME280;13449;49.374;8.584;2024-03-07T10:00:20;100909.44;;;7.64;100.00
24486;BME280;13449;49.374;8.584;2024-03-07T10:03:12;100915.63;;;7.93;100.00
24486;BME280;13449;49.374;8.584;2024-03-07T10:05:41;100916.28;;;7.96;100.00
24486;BME280;13449;49.374;8.584;2024-03-07T10:08:08;100907.75;;;7.93;100.00
24486;BME280;13449;49.374;8.584;2024-03-07T10:10:35;100915.56;;;8.08;100.00
24486;BME280;13449;49.374;8.584;2024-03-07T10:13:08;100914.88;;;7.91;100.00
24486;BME280;13449;49.374;8.584;2024-03-07T10:15:36;100909.69;;;8.05;100.00
24486;BME280;13449;49.374;8.584;2024-03-07T10:18:07;100906.38;;;8.01;100.00
24486;BME280;13449;49.374;8.584;2024-03-07T10:20:34;100911.94;;;8.25;100.00
24486;BME280;13449;49.374;8.584;2024-03-07T10:23:05;100904.38;;;8.21;100.00
24486;BME280;13449;49.374;8.584;2024-03-07T10:25:36;100897.19;;;7.94;100.00
24486;BME280;13449;49.374;8.584;2024-03-07T10:28:05;100902.28;;;8.26;100.00
24486;BME280;13449;49.374;8.584;2024-03-07T10:30:41;100894.66;;;8.37;100.00
24486;BME280;13449;49.374;8.584;2024-03-07T10:33:08;100895.56;;;8.50;100.00
24486;BME280;13449;49.374;8.584;2024-03-07T10:35:36;100895.22;;;8.56;100.00
24486;BME280;13449;49.374;8.584;2024-03-07T10:38:03;100891.47;;;8.46;100.00
24486;BME280;13449;49.374;8.584;2024-03-07T10:40:34;100888.19;;;8.57;100.00
24486;BME280;13449;49.374;8.584;2024-03-07T10:43:10;100878.31;;;8.75;100.00
24486;BME280;13449;49.374;8.584;2024-03-07T10:45:44;100887.31;;;8.85;100.00
24486;BME280;13449;49.374;8.584;2024-03-07T10:48:19;100884.38;;;9.04;100.00
24486;BME280;13449;49.374;8.584;2024-03-07T10:51:25;100875.41;;;8.79;100.00
24486;BME280;13449;49.374;8.584;2024-03-07T10:59:09;100849.84;;;8.95;100.00
24486;BME280;13449;49.374;8.584;2024-03-07T11:01:44;100843.47;;;8.44;100.00
24486;BME280;13449;49.374;8.584;2024-03-07T11:04:11;100844.56;;;8.68;100.00
24486;BME280;13449;49.374;8.584;2024-03-07T11:06:41;100840.78;;;8.87;100.00
24486;BME280;13449;49.374;8.584;2024-03-07T11:09:10;100838.63;;;8.79;100.00
24486;BME280;13449;49.374;8.584;2024-03-07T11:11:40;100836.75;;;8.81;100.00
24486;BME280;13449;49.374;8.584;2024-03-07T11:14:11;100839.28;;;8.83;100.00
24486;BME280;13449;49.374;8.584;2024-03-07T11:16:39;100837.41;;;8.85;100.00
24486;BME280;13449;49.374;8.584;2024-03-07T11:21:54;100831.97;;;8.88;100.00
24486;BME280;13449;49.374;8.584;2024-03-07T11:24:26;100823.50;;;8.83;100.00
24486;BME280;13449;49.374;8.584;2024-03-07T11:26:56;100830.47;;;8.84;100.00
24486;BME280;13449;49.374;8.584;2024-03-07T11:29:42;100816.22;;;8.74;100.00
24486;BME280;13449;49.374;8.584;2024-03-07T11:32:14;100811.88;;;8.87;100.00
24486;BME280;13449;49.374;8.584;2024-03-07T11:34:42;100802.31;;;8.86;100.00
24486;BME280;13449;49.374;8.584;2024-03-07T11:37:11;100807.06;;;9.20;100.00
24486;BME280;13449;49.374;8.584;2024-03-07T11:39:50;100787.94;;;9.18;100.00
24486;BME280;13449;49.374;8.584;2024-03-07T11:44:55;100791.56;;;9.43;100.00
24486;BME280;13449;49.374;8.584;2024-03-07T11:47:26;100796.44;;;9.61;100.00
24486;BME280;13449;49.374;8.584;2024-03-07T11:49:56;100787.16;;;9.56;100.00
24486;BME280;13449;49.374;8.584;2024-03-07T11:52:24;100779.63;;;9.89;100.00
24486;BME280;13449;49.374;8.584;2024-03-07T11:54:54;100781.50;;;9.87;100.00
24486;BME280;13449;49.374;8.584;2024-03-07T11:57:31;100770.03;;;10.14;100.00
24486;BME280;13449;49.374;8.584;2024-03-07T12:00:02;100770.88;;;9.76;100.00
24486;BME280;13449;49.374;8.584;2024-03-07T12:02:38;100763.72;;;9.91;100.00
24486;BME280;13449;49.374;8.584;2024-03-07T12:05:08;100767.41;;;9.88;100.00
24486;BME280;13449;49.374;8.584;2024-03-07T12:07:35;100762.66;;;10.19;100.00
24486;BME280;13449;49.374;8.584;2024-03-07T12:10:03;100757.59;;;10.41;100.00
24486;BME280;13449;49.374;8.584;2024-03-07T12:12:31;100746.16;;;10.54;100.00
24486;BME280;13449;49.374;8.584;2024-03-07T12:14:59;100752.59;;;10.49;100.00
24486;BME280;13449;49.374;8.584;2024-03-07T12:17:31;100745.06;;;10.32;100.00
24486;BME280;13449;49.374;8.584;2024-03-07T12:19:58;100743.75;;;10.50;100.00
24486;BME280;13449;49.374;8.584;2024-03-07T12:22:31;100743.31;;;10.57;100.00
24486;BME280;13449;49.374;8.584;2024-03-07T12:25:00;100740.41;;;10.48;100.00
24486;BME280;13449;49.374;8.584;2024-03-07T12:27:34;100742.31;;;10.46;100.00
24486;BME280;13449;49.374;8.584;2024-03-07T12:30:15;100745.88;;;10.45;100.00
24486;BME280;13449;49.374;8.584;2024-03-07T12:32:48;100745.81;;;10.34;100.00
24486;BME280;13449;49.374;8.584;2024-03-07T12:35:15;100748.16;;;10.01;100.00
24486;BME280;13449;49.374;8.584;2024-03-07T12:37:42;100741.31;;;9.60;100.00
24486;BME280;13449;49.374;8.584;2024-03-07T12:40:12;100742.34;;;9.57;100.00
24486;BME280;13449;49.374;8.584;2024-03-07T12:42:50;100736.28;;;9.70;100.00
24486;BME280;13449;49.374;8.584;2024-03-07T12:45:17;100738.56;;;9.74;100.00
24486;BME280;13449;49.374;8.584;2024-03-07T12:47:55;100741.31;;;9.85;100.00
24486;BME280;13449;49.374;8.584;2024-03-07T12:50:23;100730.34;;;9.91;100.00
24486;BME280;13449;49.374;8.584;2024-03-07T12:52:50;100740.97;;;10.03;100.00
24486;BME280;13449;49.374;8.584;2024-03-07T12:55:17;100735.19;;;10.10;100.00
24486;BME280;13449;49.374;8.584;2024-03-07T12:57:50;100739.19;;;10.16;100.00
24486;BME280;13449;49.374;8.584;2024-03-07T13:00:17;100735.38;;;10.07;100.00
24486;BME280;13449;49.374;8.584;2024-03-07T13:02:47;100731.59;;;10.24;100.00
24486;BME280;13449;49.374;8.584;2024-03-07T13:05:16;100737.72;;;10.12;100.00
24486;BME280;13449;49.374;8.584;2024-03-07T13:07:48;100737.63;;;10.01;100.00
24486;BME280;13449;49.374;8.584;2024-03-07T13:10:15;100727.38;;;10.09;100.00